createdAt,value
2018-04-15T00:02:11.460Z,22.87
2018-04-15T00:04:39.689Z,21.70
2018-04-15T00:07:20.157Z,25.10
2018-04-15T00:09:47.634Z,24.50
2018-04-15T00:12:16.082Z,24.10
2018-04-15T00:14:44.312Z,26.00
2018-04-15T00:17:11.776Z,23.10
2018-04-15T00:19:39.258Z,30.63
2018-04-15T00:22:06.719Z,29.77
2018-04-15T00:24:34.194Z,25.93
2018-04-15T00:27:01.662Z,22.07
2018-04-15T00:29:29.305Z,21.63
2018-04-15T00:31:59.850Z,23.40
2018-04-15T00:34:27.318Z,22.67
2018-04-15T00:39:57.250Z,27.67
2018-04-15T00:45:30.831Z,22.50
2018-04-15T00:47:58.281Z,21.83
2018-04-15T00:50:26.509Z,19.67
2018-04-15T00:55:46.792Z,18.10
2018-04-15T00:58:14.258Z,18.23
2018-04-15T01:00:51.666Z,25.57
2018-04-15T01:03:19.125Z,23.37
2018-04-15T01:05:47.555Z,20.93
2018-04-15T01:08:15.008Z,21.30
2018-04-15T01:10:43.257Z,18.33
2018-04-15T01:13:12.623Z,15.83
2018-04-15T01:15:44.293Z,15.90
2018-04-15T01:18:13.701Z,16.80
2018-04-15T01:20:41.941Z,18.33
2018-04-15T01:23:10.386Z,18.63
2018-04-15T01:25:39.606Z,18.40
2018-04-15T01:28:07.064Z,21.80
2018-04-15T01:30:35.297Z,19.77
2018-04-15T01:33:02.762Z,20.20
2018-04-15T01:35:30.233Z,21.33
2018-04-15T01:37:57.693Z,26.10
2018-04-15T01:40:25.159Z,22.50
2018-04-15T01:42:52.614Z,21.20
2018-04-15T01:45:22.016Z,19.60
2018-04-15T01:47:49.478Z,18.00
2018-04-15T01:50:29.530Z,17.93
2018-04-15T01:52:56.986Z,16.70
2018-04-15T01:55:24.454Z,17.70
2018-04-15T01:57:51.909Z,19.40
2018-04-15T02:00:19.376Z,17.97
2018-04-15T02:02:53.536Z,18.20
2018-04-15T02:05:23.701Z,17.37
2018-04-15T02:08:01.055Z,17.33
2018-04-15T02:10:28.529Z,21.40
2018-04-15T02:12:55.989Z,20.13
2018-04-15T02:15:23.458Z,17.80
2018-04-15T02:17:52.912Z,17.70
2018-04-15T02:20:25.008Z,19.00
2018-04-15T02:22:52.461Z,19.30
2018-04-15T02:25:20.720Z,16.77
2018-04-15T02:30:41.449Z,13.30
2018-04-15T02:33:08.907Z,15.07
2018-04-15T02:35:36.385Z,14.77
2018-04-15T02:38:13.913Z,16.77
2018-04-15T02:40:41.384Z,16.03
2018-04-15T02:43:08.845Z,14.80
2018-04-15T02:48:28.836Z,14.50
2018-04-15T02:50:56.302Z,12.73
2018-04-15T02:53:23.770Z,11.40
2018-04-15T02:55:51.237Z,10.40
2018-04-15T02:58:18.702Z,11.37
2018-04-15T03:00:46.158Z,9.30
2018-04-15T03:03:14.379Z,8.80
2018-04-15T03:05:41.850Z,10.23
2018-04-15T03:08:19.079Z,11.13
2018-04-15T03:10:46.545Z,11.87
2018-04-15T03:13:14.012Z,11.67
2018-04-15T03:15:42.477Z,10.07
2018-04-15T03:18:09.930Z,9.60
2018-04-15T03:20:37.402Z,9.80
2018-04-15T03:23:04.861Z,10.70
2018-04-15T03:25:34.277Z,10.37
2018-04-15T03:28:01.741Z,10.40
2018-04-15T03:30:29.975Z,9.60
2018-04-15T03:32:57.436Z,8.37
2018-04-15T03:35:24.894Z,8.57
2018-04-15T03:37:52.355Z,6.83
2018-04-15T03:40:19.818Z,6.50
2018-04-15T03:42:51.370Z,8.30
2018-04-15T03:45:19.606Z,10.90
2018-04-15T03:47:47.065Z,8.10
2018-04-15T03:50:14.525Z,8.10
2018-04-15T03:52:41.982Z,7.00
2018-04-15T03:55:09.458Z,6.50
2018-04-15T03:57:39.977Z,6.00
2018-04-15T04:00:12.261Z,7.13
2018-04-15T04:02:41.462Z,5.87
2018-04-15T04:05:28.741Z,5.63
2018-04-15T04:07:56.202Z,5.20
2018-04-15T04:10:23.670Z,6.77
2018-04-15T04:12:51.125Z,8.17
2018-04-15T04:15:24.685Z,7.20
2018-04-15T04:18:04.069Z,7.10
2018-04-15T04:20:44.272Z,6.63
2018-04-15T04:23:23.635Z,6.10
2018-04-15T04:25:56.903Z,7.13
2018-04-15T04:28:30.405Z,7.10
2018-04-15T04:31:17.073Z,5.60
2018-04-15T04:33:54.449Z,5.87
2018-04-15T04:36:21.917Z,4.80
2018-04-15T04:38:49.365Z,3.93
2018-04-15T04:41:32.355Z,4.87
2018-04-15T04:43:59.810Z,5.00
2018-04-15T04:46:27.279Z,4.47
2018-04-15T04:48:54.737Z,4.30
2018-04-15T04:51:39.642Z,4.50
2018-04-15T04:54:07.097Z,4.20
2018-04-15T04:56:34.559Z,4.10
2018-04-15T04:59:02.010Z,4.20
2018-04-15T05:01:29.465Z,3.77
2018-04-15T05:04:00.830Z,4.07
2018-04-15T05:06:29.062Z,4.30
2018-04-15T05:08:56.517Z,4.00
2018-04-15T05:11:49.826Z,3.67
2018-04-15T05:14:17.278Z,4.30
2018-04-15T05:16:44.750Z,4.47
2018-04-15T05:19:31.262Z,3.83
2018-04-15T05:21:58.725Z,4.73
2018-04-15T05:24:26.223Z,3.83
2018-04-15T05:26:53.658Z,3.80
2018-04-15T05:29:21.122Z,3.47
2018-04-15T05:31:48.590Z,3.63
2018-04-15T05:34:16.057Z,4.10
2018-04-15T05:36:43.526Z,4.20
2018-04-15T05:39:10.983Z,3.90
2018-04-15T05:41:40.209Z,4.53
2018-04-15T05:44:07.670Z,4.20
2018-04-15T05:46:36.061Z,4.43
2018-04-15T05:49:03.509Z,4.57
2018-04-15T05:51:31.742Z,3.93
2018-04-15T05:53:59.201Z,4.47
2018-04-15T05:56:26.686Z,4.10
2018-04-15T05:58:54.150Z,3.90
2018-04-15T06:01:22.620Z,4.50
2018-04-15T06:03:58.330Z,4.40
2018-04-15T06:06:25.802Z,4.47
2018-04-15T06:08:56.994Z,4.67
2018-04-15T06:11:29.806Z,4.33
2018-04-15T06:19:54.733Z,4.57
2018-04-15T06:22:22.205Z,4.00
2018-04-15T06:24:49.669Z,3.50
2018-04-15T06:27:17.142Z,3.50
2018-04-15T06:30:01.998Z,4.53
2018-04-15T06:32:46.161Z,4.93
2018-04-15T06:35:13.614Z,4.60
2018-04-15T06:37:41.086Z,4.03
2018-04-15T06:40:10.472Z,3.60
2018-04-15T06:43:01.879Z,3.63
2018-04-15T06:45:32.671Z,3.90
2018-04-15T06:48:00.145Z,3.10
2018-04-15T06:50:27.607Z,3.37
2018-04-15T06:52:55.078Z,3.57
2018-04-15T06:55:22.538Z,3.40
2018-04-15T06:57:50.778Z,3.53
2018-04-15T07:00:19.213Z,3.53
2018-04-15T07:02:47.445Z,3.00
2018-04-15T07:05:19.381Z,3.23
2018-04-15T07:07:48.609Z,3.17
2018-04-15T07:10:16.074Z,3.00
2018-04-15T07:12:43.549Z,3.40
2018-04-15T07:15:28.637Z,3.00
2018-04-15T07:17:56.113Z,3.23
2018-04-15T07:20:23.582Z,2.80
2018-04-15T07:22:51.046Z,3.30
2018-04-15T07:25:18.509Z,3.20
2018-04-15T07:27:45.981Z,3.20
2018-04-15T07:30:13.445Z,3.73
2018-04-15T07:32:40.923Z,4.87
2018-04-15T07:35:08.392Z,6.43
2018-04-15T07:37:35.869Z,10.60
2018-04-15T07:40:03.342Z,10.63
2018-04-15T07:42:30.817Z,12.13
2018-04-15T07:44:58.273Z,12.47
2018-04-15T07:47:25.748Z,13.40
2018-04-15T07:49:53.218Z,12.67
2018-04-15T07:52:20.692Z,13.80
2018-04-15T07:54:48.153Z,16.27
2018-04-15T07:57:16.850Z,17.07
2018-04-15T07:59:45.239Z,18.20
2018-04-15T08:02:12.706Z,20.97
2018-04-15T08:04:40.179Z,19.57
2018-04-15T08:07:07.650Z,20.20
2018-04-15T08:09:56.671Z,20.07
2018-04-15T08:12:24.153Z,18.77
2018-04-15T08:15:01.542Z,18.60
2018-04-15T08:17:29.838Z,18.53
2018-04-15T08:19:57.276Z,19.23
2018-04-15T08:22:24.745Z,18.70
2018-04-15T08:24:52.207Z,23.67
2018-04-15T08:27:19.689Z,23.00
2018-04-15T08:29:47.167Z,22.43
2018-04-15T08:32:14.637Z,23.47
2018-04-15T08:34:42.106Z,23.97
2018-04-15T08:37:09.578Z,29.03
2018-04-15T08:39:37.046Z,30.77
2018-04-15T08:42:04.523Z,28.30
2018-04-15T08:44:31.978Z,28.77
2018-04-15T08:46:59.455Z,31.13
2018-04-15T08:49:26.913Z,29.93
2018-04-15T08:51:54.387Z,28.67
2018-04-15T08:54:21.857Z,28.77
2018-04-15T08:56:49.330Z,30.27
2018-04-15T08:59:16.793Z,30.63
2018-04-15T09:01:44.264Z,29.60
2018-04-15T09:04:11.730Z,28.40
2018-04-15T09:06:39.194Z,28.67
2018-04-15T09:09:06.702Z,25.70
2018-04-15T09:11:34.137Z,28.37
2018-04-15T09:14:01.611Z,27.47
2018-04-15T09:16:29.079Z,27.93
2018-04-15T09:18:56.560Z,29.80
2018-04-15T09:21:24.025Z,25.70
2018-04-15T09:23:51.493Z,24.30
2018-04-15T09:26:18.959Z,27.60
2018-04-15T09:28:46.430Z,27.60
2018-04-15T09:31:13.898Z,22.10
2018-04-15T09:33:41.369Z,21.40
2018-04-15T09:36:08.832Z,21.80
2018-04-15T09:38:36.315Z,22.20
2018-04-15T09:41:03.794Z,22.57
2018-04-15T09:43:31.261Z,24.47
2018-04-15T09:45:58.721Z,22.10
2018-04-15T09:48:26.198Z,21.60
2018-04-15T09:50:53.666Z,23.73
2018-04-15T09:53:21.137Z,22.73
2018-04-15T09:55:48.602Z,22.20
2018-04-15T09:58:16.074Z,21.17
2018-04-15T10:00:43.543Z,20.40
2018-04-15T10:03:11.017Z,20.53
2018-04-15T10:05:38.483Z,20.40
2018-04-15T10:08:05.958Z,19.87
2018-04-15T10:10:33.423Z,17.57
2018-04-15T10:13:00.895Z,14.50
2018-04-15T10:15:28.356Z,15.90
2018-04-15T10:17:55.843Z,13.77
2018-04-15T10:20:23.301Z,13.23
2018-04-15T10:22:50.772Z,12.37
2018-04-15T10:25:18.254Z,13.13
2018-04-15T10:27:45.721Z,12.63
2018-04-15T10:30:13.190Z,16.10
2018-04-15T10:32:40.704Z,15.33
2018-04-15T10:35:08.126Z,15.67
2018-04-15T10:37:35.603Z,15.70
2018-04-15T10:40:03.070Z,15.60
2018-04-15T10:42:30.538Z,15.67
2018-04-15T10:44:58.001Z,14.40
2018-04-15T10:47:25.474Z,13.13
2018-04-15T10:49:52.934Z,13.80
2018-04-15T10:52:20.404Z,13.10
2018-04-15T10:54:47.865Z,12.20
2018-04-15T10:57:15.353Z,11.77
2018-04-15T10:59:42.837Z,11.80
2018-04-15T11:02:10.301Z,11.37
2018-04-15T11:04:37.805Z,12.40
2018-04-15T11:07:05.239Z,12.20
2018-04-15T11:09:32.704Z,12.70
2018-04-15T11:12:00.161Z,11.33
2018-04-15T11:14:27.630Z,11.03
2018-04-15T11:16:55.089Z,8.60
2018-04-15T11:19:22.580Z,8.60
2018-04-15T11:21:50.017Z,8.23
2018-04-15T11:24:17.501Z,8.10
2018-04-15T11:26:44.957Z,9.63
2018-04-15T11:29:12.422Z,9.60
2018-04-15T11:31:39.888Z,8.30
2018-04-15T11:34:07.354Z,7.40
2018-04-15T11:36:34.818Z,7.63
2018-04-15T11:39:02.288Z,8.23
2018-04-15T11:41:30.757Z,7.07
2018-04-15T11:43:58.997Z,7.83
2018-04-15T11:46:26.462Z,7.40
2018-04-15T11:48:53.931Z,7.93
2018-04-15T11:51:21.394Z,7.10
2018-04-15T11:53:48.875Z,7.53
2018-04-15T11:56:16.343Z,7.70
2018-04-15T11:58:44.583Z,6.83
2018-04-15T12:01:12.813Z,6.13
2018-04-15T12:03:40.278Z,6.80
2018-04-15T12:06:07.744Z,6.90
2018-04-15T12:08:35.213Z,6.00
2018-04-15T12:11:02.669Z,6.20
2018-04-15T12:13:30.139Z,6.43
2018-04-15T12:16:03.389Z,7.27
2018-04-15T12:18:30.853Z,6.80
2018-04-15T12:20:58.331Z,7.20
2018-04-15T12:23:26.701Z,7.03
2018-04-15T12:25:54.157Z,7.73
2018-04-15T12:28:22.395Z,7.60
2018-04-15T12:30:51.015Z,8.40
2018-04-15T12:33:19.246Z,7.27
2018-04-15T12:35:46.734Z,7.97
2018-04-15T12:38:14.193Z,7.90
2018-04-15T12:40:41.650Z,8.53
2018-04-15T12:43:09.125Z,9.20
2018-04-15T12:45:36.581Z,8.57
2018-04-15T12:48:04.050Z,9.03
2018-04-15T12:50:31.537Z,9.00
2018-04-15T12:52:59.007Z,8.00
2018-04-15T12:55:26.465Z,8.50
2018-04-15T12:57:53.931Z,8.43
2018-04-15T13:00:21.388Z,8.67
2018-04-15T13:02:48.857Z,8.90
2018-04-15T13:05:16.330Z,8.63
2018-04-15T13:07:43.804Z,7.60
2018-04-15T13:10:11.274Z,7.77
2018-04-15T13:12:38.730Z,8.10
2018-04-15T13:15:06.212Z,9.10
2018-04-15T13:17:33.661Z,8.83
2018-04-15T13:20:01.898Z,8.57
2018-04-15T13:22:29.362Z,7.70
2018-04-15T13:24:56.841Z,7.80
2018-04-15T13:27:24.296Z,7.97
2018-04-15T13:29:51.762Z,8.47
2018-04-15T13:32:19.226Z,8.77
2018-04-15T13:34:46.703Z,10.30
2018-04-15T13:37:14.163Z,8.40
2018-04-15T13:39:41.625Z,8.50
2018-04-15T13:42:09.086Z,7.57
2018-04-15T13:44:36.571Z,10.57
2018-04-15T13:47:04.054Z,9.33
2018-04-15T13:49:31.521Z,8.27
2018-04-15T13:51:58.986Z,8.30
2018-04-15T13:54:26.469Z,7.80
2018-04-15T13:56:53.922Z,6.73
2018-04-15T13:59:21.385Z,7.50
2018-04-15T14:01:48.853Z,6.10
2018-04-15T14:04:16.354Z,6.60
2018-04-15T14:06:43.826Z,6.83
2018-04-15T14:09:11.298Z,5.80
2018-04-15T14:11:38.817Z,6.80
2018-04-15T14:14:06.249Z,6.07
2018-04-15T14:16:34.559Z,5.80
2018-04-15T14:19:02.025Z,6.17
2018-04-15T14:21:29.488Z,5.80
2018-04-15T14:23:56.955Z,6.50
2018-04-15T14:26:24.418Z,7.20
2018-04-15T14:28:51.894Z,7.20
2018-04-15T14:31:19.366Z,7.53
2018-04-15T14:33:46.967Z,6.17
2018-04-15T14:36:15.210Z,7.23
2018-04-15T14:38:42.669Z,7.63
2018-04-15T14:41:10.151Z,8.13
2018-04-15T14:43:37.610Z,8.20
2018-04-15T14:46:05.878Z,8.80
2018-04-15T14:48:33.341Z,8.27
2018-04-15T14:51:00.815Z,7.67
2018-04-15T14:53:28.279Z,8.50
2018-04-15T14:55:55.754Z,8.90
2018-04-15T14:58:23.213Z,7.73
2018-04-15T15:00:50.686Z,8.13
2018-04-15T15:03:18.146Z,7.00
2018-04-15T15:05:45.626Z,8.13
2018-04-15T15:08:13.086Z,7.50
2018-04-15T15:10:40.555Z,7.70
2018-04-15T15:13:08.018Z,8.30
2018-04-15T15:15:36.250Z,7.53
2018-04-15T15:18:03.702Z,8.40
2018-04-15T15:20:31.166Z,7.57
2018-04-15T15:22:58.633Z,8.80
2018-04-15T15:25:26.105Z,7.40
2018-04-15T15:27:53.566Z,8.23
2018-04-15T15:30:21.034Z,7.80
2018-04-15T15:32:48.493Z,7.37
2018-04-15T15:35:16.726Z,8.40
2018-04-15T15:37:44.189Z,8.33
2018-04-15T15:40:11.653Z,8.70
2018-04-15T15:42:39.106Z,8.03
2018-04-15T15:45:06.577Z,8.20
2018-04-15T15:47:34.041Z,8.07
2018-04-15T15:50:01.505Z,7.30
2018-04-15T15:52:28.964Z,8.00
2018-04-15T15:54:57.199Z,7.67
2018-04-15T15:57:24.658Z,7.30
2018-04-15T15:59:52.128Z,8.30
2018-04-15T16:02:19.587Z,7.73
2018-04-15T16:04:47.066Z,6.13
2018-04-15T16:07:14.538Z,7.67
2018-04-15T16:09:42.007Z,7.23
2018-04-15T16:12:09.466Z,6.70
2018-04-15T16:14:37.702Z,6.40
2018-04-15T16:17:05.162Z,6.13
2018-04-15T16:19:32.634Z,6.60
2018-04-15T16:22:00.094Z,6.97
2018-04-15T16:24:27.567Z,6.40
2018-04-15T16:26:55.029Z,6.20
2018-04-15T16:29:22.494Z,6.60
2018-04-15T16:31:49.953Z,6.83
2018-04-15T16:34:17.469Z,5.97
2018-04-15T16:36:44.885Z,6.20
2018-04-15T16:39:12.354Z,6.33
2018-04-15T16:41:40.577Z,6.50
2018-04-15T16:44:08.062Z,7.50
2018-04-15T16:46:35.526Z,7.13
2018-04-15T16:49:02.990Z,7.50
2018-04-15T16:51:30.461Z,7.40
2018-04-15T16:53:57.955Z,7.30
2018-04-15T16:56:25.397Z,7.10
2018-04-15T16:58:52.853Z,7.80
2018-04-15T17:01:20.321Z,7.70
2018-04-15T17:03:47.768Z,8.30
2018-04-15T17:06:15.243Z,7.00
2018-04-15T17:08:42.698Z,7.00
2018-04-15T17:11:10.189Z,6.40
2018-04-15T17:13:37.647Z,7.60
2018-04-15T17:16:05.157Z,7.13
2018-04-15T17:18:32.586Z,7.40
2018-04-15T17:21:00.053Z,7.50
2018-04-15T17:23:27.518Z,8.10
2018-04-15T17:25:55.041Z,7.90
2018-04-15T17:28:22.492Z,7.07
2018-04-15T17:30:49.971Z,7.20
2018-04-15T17:33:17.434Z,7.17
2018-04-15T17:35:44.899Z,7.50
2018-04-15T17:38:12.367Z,6.97
2018-04-15T17:40:39.838Z,5.90
2018-04-15T17:43:07.302Z,17.00
2018-04-15T17:45:34.783Z,24.00
2018-04-15T17:48:02.251Z,28.30
2018-04-15T17:50:29.722Z,28.30
2018-04-15T17:52:57.204Z,28.43
2018-04-15T17:55:24.657Z,30.73
2018-04-15T17:57:52.117Z,31.87
2018-04-15T18:00:19.593Z,30.80
2018-04-15T18:02:47.058Z,31.30
2018-04-15T18:05:14.530Z,32.73
2018-04-15T18:07:41.997Z,33.30
2018-04-15T18:10:09.470Z,35.00
2018-04-15T18:12:36.974Z,34.53
2018-04-15T18:15:04.863Z,33.37
2018-04-15T18:17:32.319Z,34.20
2018-04-15T18:19:59.797Z,33.30
2018-04-15T18:22:27.257Z,32.90
2018-04-15T18:24:54.726Z,35.13
2018-04-15T18:27:22.180Z,36.07
2018-04-15T18:29:49.652Z,34.67
2018-04-15T18:32:17.109Z,34.90
2018-04-15T18:34:44.597Z,36.53
2018-04-15T18:37:12.058Z,36.80
2018-04-15T18:39:39.525Z,35.07
2018-04-15T18:42:06.998Z,36.67
2018-04-15T18:44:34.457Z,36.37
2018-04-15T18:47:01.930Z,35.40
2018-04-15T18:49:29.381Z,38.37
2018-04-15T18:51:56.854Z,37.70
2018-04-15T18:54:24.317Z,36.97
2018-04-15T18:56:51.791Z,38.53
2018-04-15T18:59:19.253Z,36.30
2018-04-15T19:01:46.721Z,38.33
2018-04-15T19:04:14.191Z,38.03
2018-04-15T19:06:41.670Z,37.90
2018-04-15T19:09:09.143Z,37.37
2018-04-15T19:11:36.617Z,37.70
2018-04-15T19:14:04.073Z,39.53
2018-04-15T19:16:31.555Z,36.43
2018-04-15T19:18:59.022Z,37.33
2018-04-15T19:21:27.082Z,38.03
2018-04-15T19:23:56.594Z,37.97
2018-04-15T19:26:25.824Z,39.10
2018-04-15T19:28:53.299Z,38.50
2018-04-15T19:31:20.803Z,38.73
2018-04-15T19:33:48.234Z,39.03
2018-04-15T19:36:16.611Z,38.53
2018-04-15T19:38:44.074Z,38.13
2018-04-15T19:41:12.320Z,39.63
2018-04-15T19:43:39.781Z,40.93
2018-04-15T19:46:07.247Z,40.60
2018-04-15T19:48:35.756Z,43.17
2018-04-15T19:51:03.924Z,44.20
2018-04-15T19:53:31.381Z,41.80
2018-04-15T19:55:58.849Z,42.73
2018-04-15T19:58:26.313Z,42.47
2018-04-15T20:00:53.786Z,41.40
2018-04-15T20:03:21.249Z,41.90
2018-04-15T20:05:48.721Z,42.83
2018-04-15T20:08:16.182Z,44.50
2018-04-15T20:10:43.658Z,41.23
2018-04-15T20:13:11.128Z,40.67
2018-04-15T20:15:40.541Z,38.90
2018-04-15T20:18:08.000Z,39.37
2018-04-15T20:20:35.473Z,38.53
2018-04-15T20:23:02.933Z,38.03
2018-04-15T20:25:31.506Z,38.57
2018-04-15T20:27:58.969Z,36.80
2018-04-15T20:30:26.456Z,38.93
2018-04-15T20:32:53.913Z,39.00
2018-04-15T20:35:32.313Z,37.90
2018-04-15T20:38:01.651Z,38.57
2018-04-15T20:40:29.155Z,38.70
2018-04-15T20:42:56.626Z,38.10
2018-04-15T20:45:24.082Z,37.80
2018-04-15T20:47:52.318Z,40.00
2018-04-15T20:50:21.691Z,38.03
2018-04-15T20:52:49.926Z,36.67
2018-04-15T20:55:17.390Z,38.50
2018-04-15T20:57:47.993Z,38.17
2018-04-15T21:00:15.469Z,38.40
2018-04-15T21:02:42.943Z,39.37
2018-04-15T21:05:12.340Z,38.07
2018-04-15T21:07:40.581Z,39.93
2018-04-15T21:10:11.070Z,37.20
2018-04-15T21:12:39.307Z,38.27
2018-04-15T21:15:08.673Z,37.60
2018-04-15T21:17:37.909Z,36.53
2018-04-15T21:20:06.270Z,36.53
2018-04-15T21:22:34.510Z,35.20
2018-04-15T21:25:02.014Z,38.67
2018-04-15T21:27:29.485Z,39.43
2018-04-15T21:29:56.953Z,36.90
2018-04-15T21:32:24.418Z,38.47
2018-04-15T21:34:51.878Z,38.40
2018-04-15T21:37:19.345Z,36.93
2018-04-15T21:39:46.810Z,39.37
2018-04-15T21:42:14.287Z,37.63
2018-04-15T21:44:42.717Z,36.80
2018-04-15T21:47:13.371Z,35.43
2018-04-15T21:49:40.845Z,35.57
2018-04-15T21:52:08.322Z,36.93
2018-04-15T21:54:35.786Z,33.67
2018-04-15T21:57:07.240Z,36.40
2018-04-15T21:59:34.707Z,37.70
2018-04-15T22:02:02.187Z,37.10
2018-04-15T22:04:30.564Z,36.73
2018-04-15T22:06:58.793Z,38.23
2018-04-15T22:09:26.259Z,36.07
2018-04-15T22:12:05.506Z,35.23
2018-04-15T22:14:32.969Z,39.47
2018-04-15T22:17:00.445Z,35.00
2018-04-15T22:19:28.903Z,30.30
2018-04-15T22:21:57.137Z,30.33
2018-04-15T22:24:24.596Z,32.10
2018-04-15T22:26:52.083Z,36.57
2018-04-15T22:29:20.517Z,35.17
2018-04-15T22:31:48.789Z,33.53
2018-04-15T22:34:18.217Z,35.67
2018-04-15T22:36:46.454Z,36.47
2018-04-15T22:39:13.923Z,31.93
2018-04-15T22:41:41.394Z,30.90
2018-04-15T22:44:08.853Z,35.73
2018-04-15T22:46:36.325Z,30.87
2018-04-15T22:49:09.439Z,28.93
2018-04-15T22:51:36.912Z,30.27
2018-04-15T22:54:04.373Z,34.20
2018-04-15T22:56:37.446Z,31.63
2018-04-15T22:59:04.913Z,27.37
2018-04-15T23:01:32.390Z,27.87
2018-04-15T23:03:59.846Z,27.90
2018-04-15T23:06:27.319Z,28.07
2018-04-15T23:08:54.772Z,26.30
2018-04-15T23:11:23.053Z,26.20
2018-04-15T23:13:50.488Z,26.00
2018-04-15T23:16:17.947Z,26.17
2018-04-15T23:18:47.338Z,25.60
2018-04-15T23:21:14.798Z,27.80
2018-04-15T23:23:43.402Z,26.73
2018-04-15T23:26:10.867Z,27.20
2018-04-15T23:28:38.338Z,27.60
2018-04-15T23:31:05.802Z,30.60
2018-04-15T23:33:33.276Z,26.97
2018-04-15T23:36:00.739Z,29.30
2018-04-15T23:38:28.976Z,27.97
2018-04-15T23:40:56.434Z,28.07
2018-04-15T23:43:23.914Z,28.93
2018-04-15T23:45:51.374Z,26.60
2018-04-15T23:48:18.846Z,29.37
2018-04-15T23:50:47.288Z,29.90
2018-04-15T23:53:15.532Z,32.23
2018-04-15T23:55:42.989Z,31.30
2018-04-15T23:58:10.466Z,31.33
